Time;durP1;ratioP1;P1;durP2;ratioP2;P2;SDS_P1;SDS_P2;PMS_P1;PMS_P2;Temp;Humidity;BMP_temperature;BMP_pressure;BME280_temperature;BME280_humidity;BME280_pressure;Samples;Min_cycle;Max_cycle;Signal;HPM_P1;HPM_P2
2024/02/23 00:04:49;;;;;;;;;;;;;;;6.97;100.00;93777.72;10364058;28;1981;-68
2024/02/23 00:09:52;;;;;;;;;;;;;;;6.97;100.00;93799.88;10365361;28;2093;-68
2024/02/23 00:14:54;;;;;;;;;;;;;;;6.92;100.00;93805.31;10362271;28;1393;-66
2024/02/23 00:19:57;;;;;;;;;;;;;;;6.91;100.00;93798.41;10359863;28;1155;-67
2024/02/23 00:25:00;;;;;;;;;;;;;;;6.91;100.00;93798.41;10365823;28;1911;-67
2024/02/23 00:30:02;;;;;;;;;;;;;;;6.88;100.00;93807.03;10372153;28;1385;-67
2024/02/23 00:35:05;;;;;;;;;;;;;;;6.82;100.00;93805.53;10363513;28;1632;-65
2024/02/23 00:40:08;;;;;;;;;;;;;;;6.75;100.00;93807.81;10365205;28;2618;-66
2024/02/23 00:45:11;;;;;;;;;;;;;;;6.73;100.00;93813.44;10365158;28;1993;-67
2024/02/23 00:50:14;;;;;;;;;;;;;;;6.70;100.00;93810.59;10369034;28;1652;-66
2024/02/23 00:55:16;;;;;;;;;;;;;;;6.65;100.00;93816.81;10368579;28;1627;-70
2024/02/23 01:00:19;;;;;;;;;;;;;;;6.65;100.00;93830.16;10361319;28;1402;-68
2024/02/23 01:05:22;;;;;;;;;;;;;;;6.60;100.00;93834.78;10366135;28;1980;-69
2024/02/23 01:10:24;;;;;;;;;;;;;;;6.58;100.00;93835.09;10360982;28;1066;-70
2024/02/23 01:15:27;;;;;;;;;;;;;;;6.55;100.00;93854.38;10362543;28;1369;-65
2024/02/23 01:20:30;;;;;;;;;;;;;;;6.60;100.00;93856.94;10363998;28;1457;-66
2024/02/23 01:25:34;;;;;;;;;;;;;;;6.54;100.00;93858.13;10355644;28;2013;-68
2024/02/23 01:30:37;;;;;;;;;;;;;;;6.58;100.00;93877.03;10363120;28;1432;-71
2024/02/23 01:35:40;;;;;;;;;;;;;;;6.56;100.00;93884.53;10365433;28;2503;-67
2024/02/23 01:40:43;;;;;;;;;;;;;;;6.53;100.00;93872.56;10363499;28;1747;-68
2024/02/23 01:45:45;;;;;;;;;;;;;;;6.47;100.00;93869.19;10361622;28;1906;-65
2024/02/23 01:50:48;;;;;;;;;;;;;;;6.40;100.00;93876.00;10362756;28;1358;-66
2024/02/23 01:55:50;;;;;;;;;;;;;;;6.28;100.00;93876.47;10364867;28;1631;-65
2024/02/23 02:00:53;;;;;;;;;;;;;;;6.25;100.00;93887.72;10366338;28;1400;-64
2024/02/23 02:05:58;;;;;;;;;;;;;;;6.22;100.00;93878.41;10363264;28;1919;-65
2024/02/23 02:11:01;;;;;;;;;;;;;;;6.21;100.00;93892.06;10370172;28;1686;-66
2024/02/23 02:16:03;;;;;;;;;;;;;;;6.17;100.00;93891.03;10366784;28;1433;-68
2024/02/23 02:21:06;;;;;;;;;;;;;;;6.11;100.00;93903.69;10366537;28;1341;-75
2024/02/23 02:26:08;;;;;;;;;;;;;;;6.10;100.00;93907.41;10371077;28;1987;-69
2024/02/23 02:31:11;;;;;;;;;;;;;;;6.14;100.00;93904.97;10361566;28;2325;-75
2024/02/23 02:36:13;;;;;;;;;;;;;;;6.11;100.00;93913.56;10374394;28;1646;-75
2024/02/23 02:41:16;;;;;;;;;;;;;;;6.08;100.00;93924.81;10376031;28;1564;-66
2024/02/23 02:46:18;;;;;;;;;;;;;;;5.94;100.00;93925.53;10368147;28;1987;-65
2024/02/23 02:51:21;;;;;;;;;;;;;;;5.86;100.00;93944.03;10368986;28;1512;-65
2024/02/23 02:56:23;;;;;;;;;;;;;;;5.74;100.00;93946.34;10373838;28;1667;-65
2024/02/23 03:01:26;;;;;;;;;;;;;;;5.67;100.00;93946.69;10375764;28;1572;-65
2024/02/23 03:06:28;;;;;;;;;;;;;;;5.61;100.00;93943.31;10368362;28;1977;-68
2024/02/23 03:11:31;;;;;;;;;;;;;;;5.52;100.00;93950.34;10374418;28;1474;-66
2024/02/23 03:16:34;;;;;;;;;;;;;;;5.49;100.00;93934.94;10372055;28;1400;-66
2024/02/23 03:21:36;;;;;;;;;;;;;;;5.38;100.00;93942.25;10364061;28;1413;-64
2024/02/23 03:26:41;;;;;;;;;;;;;;;5.38;100.00;93944.91;10372819;28;2448;-65
2024/02/23 03:31:44;;;;;;;;;;;;;;;5.37;100.00;93947.88;10359334;28;1566;-65
2024/02/23 03:36:46;;;;;;;;;;;;;;;5.33;100.00;93942.31;10364292;28;1470;-65
2024/02/23 03:41:48;;;;;;;;;;;;;;;5.29;100.00;93949.31;10366134;28;1995;-65
2024/02/23 03:46:51;;;;;;;;;;;;;;;5.33;100.00;93949.50;10361262;28;1911;-66
2024/02/23 03:51:53;;;;;;;;;;;;;;;5.30;100.00;93953.56;10366386;28;1385;-67
2024/02/23 03:56:56;;;;;;;;;;;;;;;5.24;100.00;93964.56;10376746;28;1858;-68
2024/02/23 04:01:58;;;;;;;;;;;;;;;5.06;100.00;93974.84;10373863;28;1131;-67
2024/02/23 04:07:01;;;;;;;;;;;;;;;4.99;100.00;93976.28;10364849;28;1981;-65
2024/02/23 04:12:03;;;;;;;;;;;;;;;4.92;100.00;93973.94;10362683;28;1129;-65
2024/02/23 04:17:06;;;;;;;;;;;;;;;4.87;100.00;93977.44;10361402;28;1452;-73
2024/02/23 04:22:09;;;;;;;;;;;;;;;4.83;100.00;93979.06;10362435;28;2482;-67
2024/02/23 04:27:12;;;;;;;;;;;;;;;4.87;100.00;93977.44;10361656;28;1986;-69
2024/02/23 04:32:14;;;;;;;;;;;;;;;4.82;100.00;93984.69;10359182;28;1500;-65
2024/02/23 04:37:17;;;;;;;;;;;;;;;4.85;100.00;93989.47;10357904;28;1799;-66
2024/02/23 04:42:19;;;;;;;;;;;;;;;4.76;100.00;93975.94;10358609;28;1537;-66
2024/02/23 04:47:22;;;;;;;;;;;;;;;4.73;100.00;93968.53;10362878;28;1985;-68
2024/02/23 04:52:24;;;;;;;;;;;;;;;4.62;100.00;93975.03;10360244;28;1533;-66
2024/02/23 04:57:27;;;;;;;;;;;;;;;4.55;100.00;93977.22;10363730;28;1522;-64
2024/02/23 05:02:34;;;;;;;;;;;;;;;4.46;100.00;93960.28;10365489;28;1463;-69
2024/02/23 05:07:37;;;;;;;;;;;;;;;4.36;100.00;93960.34;10361463;28;1910;-66
2024/02/23 05:12:40;;;;;;;;;;;;;;;4.36;100.00;93955.81;10365690;28;1428;-65
2024/02/23 05:17:42;;;;;;;;;;;;;;;4.41;100.00;93958.44;10357967;28;2225;-66
2024/02/23 05:22:45;;;;;;;;;;;;;;;4.43;100.00;93972.25;10358759;28;1510;-65
2024/02/23 05:27:48;;;;;;;;;;;;;;;4.46;100.00;93981.56;10358592;28;1914;-66
2024/02/23 05:32:50;;;;;;;;;;;;;;;4.49;100.00;93983.66;10359574;28;1735;-67
2024/02/23 05:37:53;;;;;;;;;;;;;;;4.51;100.00;93989.47;10367537;28;1746;-67
2024/02/23 05:42:55;;;;;;;;;;;;;;;4.57;100.00;93991.81;10375109;28;1060;-64
2024/02/23 05:47:58;;;;;;;;;;;;;;;4.61;100.00;93990.19;10372300;28;1914;-64
2024/02/23 05:53:01;;;;;;;;;;;;;;;4.64;100.00;94010.13;10373676;28;1647;-65
2024/02/23 05:58:05;;;;;;;;;;;;;;;4.69;100.00;94002.09;10369838;28;1369;-69
2024/02/23 06:03:07;;;;;;;;;;;;;;;4.73;100.00;94013.78;10368001;28;956;-66
2024/02/23 06:08:10;;;;;;;;;;;;;;;4.75;100.00;94022.28;10374171;28;1980;-65
2024/02/23 06:13:12;;;;;;;;;;;;;;;4.82;100.00;94022.75;10365193;28;2320;-66
2024/02/23 06:18:14;;;;;;;;;;;;;;;4.84;100.00;94020.63;10370282;28;1487;-66
2024/02/23 06:23:17;;;;;;;;;;;;;;;4.87;100.00;94027.22;10367956;28;1460;-65
2024/02/23 06:28:19;;;;;;;;;;;;;;;4.85;100.00;94048.81;10368416;28;1922;-66
2024/02/23 06:33:22;;;;;;;;;;;;;;;4.87;100.00;94030.69;10366416;28;1666;-70
2024/02/23 06:38:25;;;;;;;;;;;;;;;4.84;100.00;94030.47;10367904;28;1772;-64
2024/02/23 06:43:27;;;;;;;;;;;;;;;4.78;100.00;94031.59;10365728;28;1235;-66
2024/02/23 06:48:30;;;;;;;;;;;;;;;4.87;100.00;94024.56;10368286;28;1914;-68
2024/02/23 06:53:32;;;;;;;;;;;;;;;4.89;100.00;94023.22;10375716;28;1330;-65
2024/02/23 06:58:35;;;;;;;;;;;;;;;4.89;100.00;94023.22;10367445;28;1349;-64
2024/02/23 07:03:39;;;;;;;;;;;;;;;4.95;100.00;94031.94;10365027;28;1481;-65
2024/02/23 07:08:42;;;;;;;;;;;;;;;5.04;100.00;94035.59;10368404;28;1918;-65
2024/02/23 07:13:44;;;;;;;;;;;;;;;5.08;100.00;94035.81;10372539;28;2744;-65
2024/02/23 07:18:47;;;;;;;;;;;;;;;5.08;100.00;94046.47;10370866;28;1585;-65
2024/02/23 07:23:50;;;;;;;;;;;;;;;5.07;100.00;94050.22;10370095;28;1691;-66
2024/02/23 07:28:52;;;;;;;;;;;;;;;5.10;100.00;94055.00;10364013;28;1979;-68
2024/02/23 07:33:55;;;;;;;;;;;;;;;5.21;100.00;94067.13;10361233;28;1708;-68
2024/02/23 07:38:58;;;;;;;;;;;;;;;5.14;100.00;94077.31;10371408;28;1754;-65
2024/02/23 07:44:00;;;;;;;;;;;;;;;5.10;100.00;94070.97;10372943;28;1451;-65
2024/02/23 07:49:03;;;;;;;;;;;;;;;5.09;100.00;94070.19;10362183;28;1921;-67
2024/02/23 07:54:06;;;;;;;;;;;;;;;5.19;100.00;94063.94;10368577;28;2297;-66
2024/02/23 07:59:08;;;;;;;;;;;;;;;5.35;100.00;94057.41;10361251;28;1369;-66
2024/02/23 08:04:13;;;;;;;;;;;;;;;5.57;100.00;94056.09;10366536;28;1044;-67
2024/02/23 08:09:16;;;;;;;;;;;;;;;5.69;100.00;94035.16;10364688;28;1967;-67
2024/02/23 08:14:19;;;;;;;;;;;;;;;5.82;100.00;94023.81;10362057;28;1428;-67
2024/02/23 08:19:22;;;;;;;;;;;;;;;6.09;100.00;94027.75;10366555;28;1226;-66
2024/02/23 08:24:26;;;;;;;;;;;;;;;5.90;100.00;94052.50;10359267;28;1965;-69
2024/02/23 08:29:28;;;;;;;;;;;;;;;6.24;100.00;94008.88;10367168;28;1952;-66
2024/02/23 08:34:31;;;;;;;;;;;;;;;6.55;100.00;94014.53;10361566;28;2316;-69
2024/02/23 08:39:36;;;;;;;;;;;;;;;6.86;100.00;94030.84;10359672;28;1566;-67
2024/02/23 08:44:40;;;;;;;;;;;;;;;7.08;100.00;94018.75;10366340;28;1530;-65
2024/02/23 08:49:43;;;;;;;;;;;;;;;6.87;100.00;94016.44;10358488;28;1919;-65
2024/02/23 08:54:45;;;;;;;;;;;;;;;7.09;100.00;94028.34;10365695;28;1666;-69
2024/02/23 08:59:48;;;;;;;;;;;;;;;6.72;100.00;94060.19;10364530;28;1361;-65
2024/02/23 09:04:50;;;;;;;;;;;;;;;6.67;100.00;94064.81;10356139;28;1410;-72
2024/02/23 09:09:53;;;;;;;;;;;;;;;6.50;100.00;94076.03;10361174;28;1910;-68
2024/02/23 09:14:56;;;;;;;;;;;;;;;6.45;100.00;94092.91;10356888;28;1394;-70
2024/02/23 09:19:58;;;;;;;;;;;;;;;6.28;100.00;94116.59;10361624;28;1052;-68
2024/02/23 09:25:01;;;;;;;;;;;;;;;6.08;100.00;94114.19;10362465;28;2730;-68
2024/02/23 09:30:04;;;;;;;;;;;;;;;5.97;100.00;94111.66;10362735;28;1879;-64
2024/02/23 09:35:07;;;;;;;;;;;;;;;5.89;100.00;94109.59;10362465;28;1862;-65
2024/02/23 09:40:09;;;;;;;;;;;;;;;6.05;100.00;94112.91;10369262;28;1743;-65
2024/02/23 09:45:12;;;;;;;;;;;;;;;6.03;100.00;94108.91;10361360;28;1451;-67
2024/02/23 09:50:15;;;;;;;;;;;;;;;6.04;100.00;94108.63;10364504;28;1914;-65
2024/02/23 09:55:18;;;;;;;;;;;;;;;6.23;100.00;94103.31;10355353;28;1651;-64
2024/02/23 10:00:20;;;;;;;;;;;;;;;6.34;100.00;94102.13;10362507;28;1409;-66
2024/02/23 10:05:23;;;;;;;;;;;;;;;6.51;100.00;94114.97;10364256;28;2308;-66
2024/02/23 10:10:26;;;;;;;;;;;;;;;6.55;100.00;94105.28;10364046;28;1983;-64
2024/02/23 10:15:29;;;;;;;;;;;;;;;6.64;100.00;94113.47;10368735;28;1596;-66
2024/02/23 10:20:32;;;;;;;;;;;;;;;6.71;100.00;94112.00;10359865;28;1627;-64
2024/02/23 10:25:34;;;;;;;;;;;;;;;6.70;100.00;94101.63;10374043;28;1981;-64
2024/02/23 10:30:37;;;;;;;;;;;;;;;6.88;100.00;94076.78;10368775;28;1662;-64
2024/02/23 10:35:41;;;;;;;;;;;;;;;6.92;100.00;94072.44;10373056;28;1814;-66
2024/02/23 10:40:43;;;;;;;;;;;;;;;7.15;100.00;94080.63;10371293;28;1198;-65
2024/02/23 10:45:46;;;;;;;;;;;;;;;7.47;100.00;94090.50;10369713;28;1918;-65
2024/02/23 10:50:48;;;;;;;;;;;;;;;7.56;100.00;94081.47;10364634;28;1373;-64
2024/02/23 10:55:51;;;;;;;;;;;;;;;7.23;100.00;94088.75;10362489;28;1032;-64
2024/02/23 11:00:57;;;;;;;;;;;;;;;7.36;100.00;94094.44;10366618;28;1329;-64
2024/02/23 11:05:59;;;;;;;;;;;;;;;7.34;100.00;94089.38;10365937;28;2450;-64
2024/02/23 11:11:02;;;;;;;;;;;;;;;7.07;100.00;94100.00;10362624;28;1044;-64
2024/02/23 11:16:05;;;;;;;;;;;;;;;6.98;100.00;94097.19;10360288;28;1381;-65
2024/02/23 11:21:08;;;;;;;;;;;;;;;7.03;100.00;94095.22;10362272;28;1405;-65
2024/02/23 11:26:11;;;;;;;;;;;;;;;7.10;100.00;94094.06;10359232;28;1989;-66
2024/02/23 11:31:14;;;;;;;;;;;;;;;7.05;100.00;94086.91;10362246;28;1698;-66
2024/02/23 11:36:16;;;;;;;;;;;;;;;6.92;100.00;94099.13;10363988;28;1389;-64
2024/02/23 11:41:19;;;;;;;;;;;;;;;7.07;100.00;94086.66;10367118;28;994;-65
2024/02/23 11:46:21;;;;;;;;;;;;;;;7.07;100.00;94084.75;10360888;28;1981;-66
2024/02/23 11:51:27;;;;;;;;;;;;;;;7.18;100.00;94088.03;10368738;28;1360;-67
2024/02/23 11:56:29;;;;;;;;;;;;;;;6.86;100.00;94091.50;10368375;28;1139;-65
2024/02/23 12:01:32;;;;;;;;;;;;;;;6.91;100.00;94084.19;10366747;28;2452;-65
2024/02/23 12:06:34;;;;;;;;;;;;;;;7.14;100.00;94071.03;10359106;28;1965;-66
2024/02/23 12:11:37;;;;;;;;;;;;;;;7.29;100.00;94070.75;10366899;28;1889;-65
2024/02/23 12:16:40;;;;;;;;;;;;;;;7.36;100.00;94078.38;10362601;28;1437;-67
2024/02/23 12:21:42;;;;;;;;;;;;;;;7.01;100.00;94085.94;10365446;28;1715;-66
2024/02/23 12:26:45;;;;;;;;;;;;;;;6.74;100.00;94079.41;10362075;28;1922;-66
2024/02/23 12:31:48;;;;;;;;;;;;;;;6.53;100.00;94055.97;10365046;28;1397;-65
2024/02/23 12:36:50;;;;;;;;;;;;;;;6.70;100.00;94053.56;10357483;28;1382;-65
2024/02/23 12:41:53;;;;;;;;;;;;;;;6.89;100.00;94054.34;10363345;28;2339;-69
2024/02/23 12:46:55;;;;;;;;;;;;;;;6.77;100.00;94054.78;10364346;28;1966;-69
2024/02/23 12:51:58;;;;;;;;;;;;;;;6.76;100.00;94061.22;10359531;28;1476;-71
2024/02/23 12:57:01;;;;;;;;;;;;;;;6.66;100.00;94060.56;10365495;28;1442;-64
2024/02/23 13:02:03;;;;;;;;;;;;;;;6.62;100.00;94041.69;10360998;28;1337;-67
2024/02/23 13:07:06;;;;;;;;;;;;;;;6.80;100.00;94021.34;10356883;28;1898;-66
2024/02/23 13:12:08;;;;;;;;;;;;;;;6.97;100.00;94045.63;10362313;28;1854;-66
2024/02/23 13:17:12;;;;;;;;;;;;;;;7.09;100.00;94036.38;10358014;28;1330;-67
2024/02/23 13:22:14;;;;;;;;;;;;;;;6.95;100.00;94057.72;10359113;28;2719;-65
2024/02/23 13:27:17;;;;;;;;;;;;;;;6.67;100.00;94059.47;10355681;28;1903;-66
2024/02/23 13:32:19;;;;;;;;;;;;;;;6.89;100.00;94073.03;10356701;28;1448;-65
2024/02/23 13:37:23;;;;;;;;;;;;;;;6.49;100.00;94077.91;10358499;28;1731;-65
2024/02/23 13:42:25;;;;;;;;;;;;;;;6.45;100.00;94062.75;10358284;28;1091;-65
2024/02/23 13:47:28;;;;;;;;;;;;;;;6.34;100.00;94046.06;10359524;28;1922;-65
2024/02/23 13:52:30;;;;;;;;;;;;;;;6.28;100.00;94041.91;10362370;28;1726;-70
2024/02/23 13:57:34;;;;;;;;;;;;;;;6.48;100.00;94064.81;10367319;28;1107;-78
2024/02/23 14:02:36;;;;;;;;;;;;;;;6.65;100.00;94033.06;10373969;28;1330;-73
2024/02/23 14:07:39;;;;;;;;;;;;;;;6.50;100.00;94006.63;10362546;28;2174;-71
2024/02/23 14:12:42;;;;;;;;;;;;;;;6.34;100.00;94010.59;10369158;28;1012;-66
2024/02/23 14:17:44;;;;;;;;;;;;;;;6.23;100.00;94012.59;10364653;28;1368;-64
2024/02/23 14:22:50;;;;;;;;;;;;;;;6.20;100.00;94007.88;10365410;28;1715;-64
2024/02/23 14:27:55;;;;;;;;;;;;;;;6.20;100.00;94029.22;10369071;28;1923;-64
2024/02/23 14:32:57;;;;;;;;;;;;;;;6.09;100.00;94017.09;10368117;28;1365;-65
2024/02/23 14:38:00;;;;;;;;;;;;;;;5.90;100.00;94036.50;10365559;28;1401;-64
2024/02/23 14:43:03;;;;;;;;;;;;;;;5.82;100.00;94033.69;10366685;28;1272;-64
2024/02/23 14:48:05;;;;;;;;;;;;;;;5.67;100.00;94038.13;10369364;28;1981;-67
2024/02/23 14:53:08;;;;;;;;;;;;;;;5.55;100.00;94050.28;10371237;28;1538;-65
2024/02/23 14:58:11;;;;;;;;;;;;;;;5.51;100.00;94022.59;10373925;28;1016;-67
2024/02/23 15:03:14;;;;;;;;;;;;;;;5.29;100.00;94009.78;10364997;28;2420;-69
2024/02/23 15:08:16;;;;;;;;;;;;;;;5.11;100.00;94006.78;10367097;28;1915;-65
2024/02/23 15:13:19;;;;;;;;;;;;;;;4.77;100.00;93988.22;10363025;28;1502;-64
2024/02/23 15:18:22;;;;;;;;;;;;;;;4.89;100.00;93985.94;10364628;28;1727;-65
2024/02/23 15:23:25;;;;;;;;;;;;;;;5.01;100.00;94035.34;10361099;28;1659;-64
2024/02/23 15:28:27;;;;;;;;;;;;;;;5.07;100.00;94044.88;10361615;28;1918;-64
2024/02/23 15:33:30;;;;;;;;;;;;;;;4.92;100.00;94015.75;10363989;28;1401;-69
2024/02/23 15:38:32;;;;;;;;;;;;;;;4.91;100.00;93992.88;10364015;28;1793;-65
2024/02/23 15:43:35;;;;;;;;;;;;;;;4.86;100.00;94013.13;10369645;28;1376;-66
2024/02/23 15:48:37;;;;;;;;;;;;;;;4.79;100.00;93999.34;10361078;28;1985;-65
2024/02/23 15:53:40;;;;;;;;;;;;;;;4.58;100.00;94041.31;10364840;28;1487;-64
2024/02/23 15:58:43;;;;;;;;;;;;;;;4.54;100.00;94036.84;10364595;28;2804;-65
2024/02/23 16:03:45;;;;;;;;;;;;;;;4.39;100.00;94039.59;10364575;28;1612;-64
2024/02/23 16:08:49;;;;;;;;;;;;;;;4.39;100.00;94026.28;10361268;28;1917;-65
2024/02/23 16:13:52;;;;;;;;;;;;;;;4.42;100.00;94012.44;10365780;28;1447;-64
2024/02/23 16:18:57;;;;;;;;;;;;;;;4.41;100.00;94010.84;10365675;28;1565;-65
2024/02/23 16:24:00;;;;;;;;;;;;;;;4.42;100.00;94015.09;10361530;28;1577;-65
2024/02/23 16:29:03;;;;;;;;;;;;;;;4.40;100.00;94017.25;10360344;28;1918;-64
2024/02/23 16:34:06;;;;;;;;;;;;;;;4.29;100.00;94019.19;10362006;28;1307;-64
2024/02/23 16:39:09;;;;;;;;;;;;;;;4.21;100.00;94025.88;10356645;28;1310;-64
2024/02/23 16:44:14;;;;;;;;;;;;;;;4.17;100.00;94014.22;10362461;28;1029;-64
2024/02/23 16:49:16;;;;;;;;;;;;;;;4.12;100.00;94003.59;10358398;28;2816;-64
2024/02/23 16:54:20;;;;;;;;;;;;;;;3.97;100.00;93998.38;10358717;28;1358;-64
2024/02/23 16:59:23;;;;;;;;;;;;;;;3.95;100.00;93992.56;10369897;28;1673;-66
2024/02/23 17:04:25;;;;;;;;;;;;;;;4.01;100.00;93996.78;10367726;28;1386;-72
2024/02/23 17:09:28;;;;;;;;;;;;;;;4.03;100.00;94026.53;10357723;28;1910;-65
2024/02/23 17:14:30;;;;;;;;;;;;;;;4.06;100.00;94060.53;10362972;28;1409;-64
2024/02/23 17:19:33;;;;;;;;;;;;;;;3.96;100.00;94068.59;10358697;28;1204;-64
2024/02/23 17:24:35;;;;;;;;;;;;;;;3.93;100.00;94058.47;10353454;28;1366;-66
2024/02/23 17:29:38;;;;;;;;;;;;;;;3.82;100.00;94030.34;10368177;28;2001;-66
2024/02/23 17:34:40;;;;;;;;;;;;;;;3.80;100.00;94015.47;10357071;28;1718;-66
2024/02/23 17:39:43;;;;;;;;;;;;;;;3.81;100.00;93995.00;10360251;28;2944;-65
2024/02/23 17:44:45;;;;;;;;;;;;;;;3.83;100.00;94010.69;10367171;28;1550;-68
2024/02/23 17:49:48;;;;;;;;;;;;;;;3.68;100.00;94046.88;10362131;28;1973;-65
2024/02/23 17:54:51;;;;;;;;;;;;;;;3.68;100.00;94041.56;10362109;28;1425;-64
2024/02/23 17:59:53;;;;;;;;;;;;;;;3.58;100.00;94057.59;10363904;28;1378;-65
2024/02/23 18:04:56;;;;;;;;;;;;;;;3.56;100.00;94059.69;10360522;28;1243;-65
2024/02/23 18:09:59;;;;;;;;;;;;;;;3.48;100.00;94020.41;10363066;28;1918;-64
2024/02/23 18:15:02;;;;;;;;;;;;;;;3.48;100.00;94026.53;10359388;28;1250;-64
2024/02/23 18:20:04;;;;;;;;;;;;;;;3.45;100.00;94024.41;10359269;28;2794;-64
2024/02/23 18:25:07;;;;;;;;;;;;;;;3.44;100.00;94024.69;10357809;28;1552;-65
2024/02/23 18:30:09;;;;;;;;;;;;;;;3.37;100.00;94018.84;10361678;28;1969;-71
2024/02/23 18:35:11;;;;;;;;;;;;;;;3.34;100.00;94006.13;10362466;28;1996;-67
2024/02/23 18:40:14;;;;;;;;;;;;;;;3.28;100.00;93983.31;10364033;28;1583;-64
2024/02/23 18:45:18;;;;;;;;;;;;;;;3.29;100.00;94017.56;10367715;28;1413;-64
2024/02/23 18:50:22;;;;;;;;;;;;;;;3.27;100.00;94034.84;10362976;28;1906;-65
2024/02/23 18:55:25;;;;;;;;;;;;;;;3.19;100.00;94018.41;10363275;28;1122;-65
2024/02/23 19:00:30;;;;;;;;;;;;;;;3.25;100.00;94019.97;10370308;28;2694;-65
2024/02/23 19:05:32;;;;;;;;;;;;;;;3.20;100.00;94003.25;10362035;28;1590;-65
2024/02/23 19:10:35;;;;;;;;;;;;;;;3.21;100.00;93987.06;10379471;28;1914;-66
2024/02/23 19:15:39;;;;;;;;;;;;;;;3.33;100.00;93996.56;10364759;28;1715;-65
2024/02/23 19:20:42;;;;;;;;;;;;;;;3.40;100.00;93997.06;10363165;28;1405;-65
2024/02/23 19:25:44;;;;;;;;;;;;;;;3.29;100.00;94006.94;10364919;28;1494;-65
2024/02/23 19:30:47;;;;;;;;;;;;;;;3.33;100.00;94012.50;10356922;28;1989;-65
2024/02/23 19:35:49;;;;;;;;;;;;;;;3.38;100.00;94009.84;10367752;28;1459;-65
2024/02/23 19:40:52;;;;;;;;;;;;;;;3.21;100.00;94008.28;10365281;28;1192;-67
2024/02/23 19:45:54;;;;;;;;;;;;;;;3.33;100.00;94002.69;10365330;28;1389;-65
2024/02/23 19:51:13;;;;;;;;;;;;;;;3.34;100.00;94001.63;10368817;28;2848;-65
2024/02/23 19:56:16;;;;;;;;;;;;;;;3.36;100.00;93996.03;10367332;28;1519;-69
2024/02/23 20:01:20;;;;;;;;;;;;;;;3.35;100.00;94000.53;10368945;28;1581;-68
2024/02/23 20:06:23;;;;;;;;;;;;;;;3.34;100.00;93992.84;10362398;28;1699;-73
2024/02/23 20:11:25;;;;;;;;;;;;;;;3.27;100.00;93982.53;10364468;28;1991;-67
2024/02/23 20:16:28;;;;;;;;;;;;;;;3.16;100.00;93965.03;10369789;28;1441;-67
2024/02/23 20:21:31;;;;;;;;;;;;;;;3.17;100.00;93951.47;10362461;28;1417;-64
2024/02/23 20:26:33;;;;;;;;;;;;;;;3.20;100.00;93950.16;10363226;28;1152;-63
2024/02/23 20:31:38;;;;;;;;;;;;;;;3.11;100.00;93963.19;10366726;28;2722;-66
2024/02/23 20:36:40;;;;;;;;;;;;;;;3.13;100.00;93969.03;10356890;28;1378;-65
2024/02/23 20:41:43;;;;;;;;;;;;;;;3.18;100.00;93962.88;10361793;28;1044;-67
2024/02/23 20:46:48;;;;;;;;;;;;;;;3.19;100.00;93959.97;10362187;28;1706;-64
2024/02/23 20:51:54;;;;;;;;;;;;;;;3.08;100.00;93961.09;10361846;28;1918;-64
2024/02/23 20:56:57;;;;;;;;;;;;;;;3.12;100.00;93954.19;10364007;28;1270;-64
2024/02/23 21:01:59;;;;;;;;;;;;;;;3.18;100.00;93968.19;10358456;28;1476;-63
2024/02/23 21:07:02;;;;;;;;;;;;;;;3.17;100.00;93978.03;10356975;28;1810;-67
2024/02/23 21:12:06;;;;;;;;;;;;;;;3.28;100.00;93975.34;10359168;28;1910;-65
2024/02/23 21:17:09;;;;;;;;;;;;;;;3.16;100.00;93970.34;10359605;28;2734;-66
2024/02/23 21:22:11;;;;;;;;;;;;;;;3.19;100.00;93986.53;10361982;28;1772;-68
2024/02/23 21:27:14;;;;;;;;;;;;;;;3.23;100.00;93994.75;10361058;28;1334;-65
2024/02/23 21:32:16;;;;;;;;;;;;;;;3.23;100.00;93981.47;10361527;28;1981;-66
2024/02/23 21:37:20;;;;;;;;;;;;;;;3.21;100.00;93983.59;10355327;28;1758;-65
2024/02/23 21:42:23;;;;;;;;;;;;;;;3.08;100.00;93962.94;10361867;28;1055;-65
2024/02/23 21:47:25;;;;;;;;;;;;;;;3.10;100.00;93972.22;10362913;28;1397;-71
2024/02/23 21:52:30;;;;;;;;;;;;;;;3.05;100.00;93984.69;10352482;28;2265;-66
2024/02/23 21:57:32;;;;;;;;;;;;;;;3.02;100.00;93975.44;10354273;28;3019;-68
2024/02/23 22:02:35;;;;;;;;;;;;;;;3.06;100.00;93962.44;10361013;28;1460;-69
2024/02/23 22:07:37;;;;;;;;;;;;;;;3.03;100.00;93963.75;10358226;28;1356;-64
2024/02/23 22:12:40;;;;;;;;;;;;;;;3.03;100.00;93971.72;10361159;28;1914;-67
2024/02/23 22:17:45;;;;;;;;;;;;;;;3.07;100.00;93966.66;10364526;28;1529;-67
2024/02/23 22:22:48;;;;;;;;;;;;;;;3.11;100.00;93979.09;10366490;28;1791;-67
2024/02/23 22:27:51;;;;;;;;;;;;;;;3.03;100.00;93966.41;10365252;28;1777;-66
2024/02/23 22:32:54;;;;;;;;;;;;;;;2.98;100.00;93974.38;10362052;28;1989;-64
2024/02/23 22:37:57;;;;;;;;;;;;;;;3.00;100.00;93961.66;10362115;28;1392;-67
2024/02/23 22:43:00;;;;;;;;;;;;;;;3.00;100.00;93959.00;10369567;28;2362;-65
2024/02/23 22:48:03;;;;;;;;;;;;;;;2.94;100.00;93970.69;10364725;28;1496;-66
2024/02/23 22:53:06;;;;;;;;;;;;;;;2.92;100.00;93964.81;10367929;28;1963;-69
2024/02/23 22:58:09;;;;;;;;;;;;;;;2.90;100.00;93966.97;10369795;28;1220;-66
2024/02/23 23:03:12;;;;;;;;;;;;;;;2.92;100.00;93972.78;10359607;28;1771;-65
2024/02/23 23:08:15;;;;;;;;;;;;;;;2.97;100.00;93978.09;10366322;28;2133;-68
2024/02/23 23:13:18;;;;;;;;;;;;;;;2.98;100.00;93979.69;10368777;28;1918;-66
2024/02/23 23:18:20;;;;;;;;;;;;;;;2.97;100.00;93988.72;10368363;28;2485;-73
2024/02/23 23:23:23;;;;;;;;;;;;;;;2.91;100.00;93987.91;10367207;28;1806;-74
2024/02/23 23:28:26;;;;;;;;;;;;;;;2.85;100.00;93991.66;10366583;28;1319;-69
2024/02/23 23:33:29;;;;;;;;;;;;;;;2.94;100.00;93995.38;10369429;28;1985;-66
2024/02/23 23:38:33;;;;;;;;;;;;;;;2.75;100.00;94001.50;10375645;28;1659;-73
2024/02/23 23:43:35;;;;;;;;;;;;;;;2.70;100.00;94003.09;10377755;28;1231;-65
2024/02/23 23:48:38;;;;;;;;;;;;;;;2.69;100.00;94004.16;10376607;28;1503;-67
2024/02/23 23:53:40;;;;;;;;;;;;;;;2.58;100.00;94004.44;10379072;28;2029;-64
2024/02/23 23:58:43;;;;;;;;;;;;;;;2.64;100.00;94001.50;10372580;28;1597;-64
